North Elmham, United Kingdom
Current Conditions -  °F | °C
As of 3:50 AM on Monday 26 Jan 2015 (Local Time) from EGSH Reporting Station
Overcast Overcast  
Wind Chill: 41°   Ceiling: 800
Heat Index: 46°   Visibility: 6mi
Dew Point: 45°   Wind: 12mph
Humidity: 93%   Direction: 240°WSW
Pressure: 30.12"   Gusts: NA
Location:  52.75°N, 0.95°E
Report Text: EGSH 260350Z AUTO 24010KT 200V270 9999 BKN008/// OVC012/// 08/07 Q1020
Loading
Personal Weather Stations






























Interactive Weather Map New forecast layout! Learn more

10-Day Weather Forecast

Advertisements
Track Severe Weather on mobile